sensor_id;sensor_type;location;lat;lon;timestamp;P1;durP1;ratioP1;P2;durP2;ratioP2
70052;SDS011;57398;52.032;4.376;2023-11-19T00:02:41;0.83;;;0.30;;
70052;SDS011;57398;52.032;4.376;2023-11-19T00:05:29;0.82;;;0.30;;
70052;SDS011;57398;52.032;4.376;2023-11-19T00:08:18;0.80;;;0.30;;
70052;SDS011;57398;52.032;4.376;2023-11-19T00:11:07;0.90;;;0.30;;
70052;SDS011;57398;52.032;4.376;2023-11-19T00:13:55;0.88;;;0.30;;
70052;SDS011;57398;52.032;4.376;2023-11-19T00:16:43;0.80;;;0.20;;
70052;SDS011;57398;52.032;4.376;2023-11-19T00:19:31;0.98;;;0.30;;
70052;SDS011;57398;52.032;4.376;2023-11-19T00:22:19;0.90;;;0.35;;
70052;SDS011;57398;52.032;4.376;2023-11-19T00:25:08;0.80;;;0.20;;
70052;SDS011;57398;52.032;4.376;2023-11-19T00:27:58;0.90;;;0.30;;
70052;SDS011;57398;52.032;4.376;2023-11-19T00:30:46;0.80;;;0.30;;
70052;SDS011;57398;52.032;4.376;2023-11-19T00:33:34;0.90;;;0.30;;
70052;SDS011;57398;52.032;4.376;2023-11-19T00:36:34;0.85;;;0.30;;
70052;SDS011;57398;52.032;4.376;2023-11-19T00:39:22;1.00;;;0.43;;
70052;SDS011;57398;52.032;4.376;2023-11-19T00:42:10;1.00;;;0.40;;
70052;SDS011;57398;52.032;4.376;2023-11-19T00:45:00;1.00;;;0.40;;
70052;SDS011;57398;52.032;4.376;2023-11-19T00:47:48;1.00;;;0.40;;
70052;SDS011;57398;52.032;4.376;2023-11-19T00:50:36;1.00;;;0.40;;
70052;SDS011;57398;52.032;4.376;2023-11-19T00:53:26;0.90;;;0.38;;
70052;SDS011;57398;52.032;4.376;2023-11-19T00:56:14;1.10;;;0.50;;
70052;SDS011;57398;52.032;4.376;2023-11-19T00:59:04;1.00;;;0.50;;
70052;SDS011;57398;52.032;4.376;2023-11-19T01:01:53;1.00;;;0.40;;
70052;SDS011;57398;52.032;4.376;2023-11-19T01:04:43;1.00;;;0.40;;
70052;SDS011;57398;52.032;4.376;2023-11-19T01:07:32;1.00;;;0.40;;
70052;SDS011;57398;52.032;4.376;2023-11-19T01:10:20;1.00;;;0.40;;
70052;SDS011;57398;52.032;4.376;2023-11-19T01:13:08;0.90;;;0.40;;
70052;SDS011;57398;52.032;4.376;2023-11-19T01:15:56;1.00;;;0.40;;
70052;SDS011;57398;52.032;4.376;2023-11-19T01:18:46;0.80;;;0.30;;
70052;SDS011;57398;52.032;4.376;2023-11-19T01:21:34;1.00;;;0.40;;
70052;SDS011;57398;52.032;4.376;2023-11-19T01:24:22;0.90;;;0.30;;
70052;SDS011;57398;52.032;4.376;2023-11-19T01:27:10;0.90;;;0.40;;
70052;SDS011;57398;52.032;4.376;2023-11-19T01:29:58;0.90;;;0.30;;
70052;SDS011;57398;52.032;4.376;2023-11-19T01:32:48;1.00;;;0.40;;
70052;SDS011;57398;52.032;4.376;2023-11-19T01:35:38;1.00;;;0.40;;
70052;SDS011;57398;52.032;4.376;2023-11-19T01:38:26;1.00;;;0.40;;
70052;SDS011;57398;52.032;4.376;2023-11-19T01:41:14;0.90;;;0.30;;
70052;SDS011;57398;52.032;4.376;2023-11-19T01:44:02;0.90;;;0.30;;
70052;SDS011;57398;52.032;4.376;2023-11-19T01:46:51;0.90;;;0.30;;
70052;SDS011;57398;52.032;4.376;2023-11-19T01:49:39;0.90;;;0.30;;
70052;SDS011;57398;52.032;4.376;2023-11-19T01:52:28;1.00;;;0.40;;
70052;SDS011;57398;52.032;4.376;2023-11-19T01:55:17;1.00;;;0.40;;
70052;SDS011;57398;52.032;4.376;2023-11-19T01:58:05;0.90;;;0.40;;
70052;SDS011;57398;52.032;4.376;2023-11-19T02:00:54;1.00;;;0.40;;
70052;SDS011;57398;52.032;4.376;2023-11-19T02:03:42;0.93;;;0.40;;
70052;SDS011;57398;52.032;4.376;2023-11-19T02:06:31;1.00;;;0.50;;
70052;SDS011;57398;52.032;4.376;2023-11-19T02:09:22;1.00;;;0.40;;
70052;SDS011;57398;52.032;4.376;2023-11-19T02:12:10;0.90;;;0.30;;
70052;SDS011;57398;52.032;4.376;2023-11-19T02:14:59;0.90;;;0.30;;
70052;SDS011;57398;52.032;4.376;2023-11-19T02:17:49;0.90;;;0.30;;
70052;SDS011;57398;52.032;4.376;2023-11-19T02:20:37;0.90;;;0.40;;
70052;SDS011;57398;52.032;4.376;2023-11-19T02:23:25;0.90;;;0.30;;
70052;SDS011;57398;52.032;4.376;2023-11-19T02:26:16;1.00;;;0.40;;
70052;SDS011;57398;52.032;4.376;2023-11-19T02:29:14;0.90;;;0.30;;
70052;SDS011;57398;52.032;4.376;2023-11-19T02:32:02;1.00;;;0.40;;
70052;SDS011;57398;52.032;4.376;2023-11-19T02:34:50;0.90;;;0.30;;
70052;SDS011;57398;52.032;4.376;2023-11-19T02:37:39;0.90;;;0.30;;
70052;SDS011;57398;52.032;4.376;2023-11-19T02:40:27;1.00;;;0.40;;
70052;SDS011;57398;52.032;4.376;2023-11-19T02:43:16;0.90;;;0.32;;
70052;SDS011;57398;52.032;4.376;2023-11-19T02:46:06;1.00;;;0.40;;
70052;SDS011;57398;52.032;4.376;2023-11-19T02:48:58;1.10;;;0.50;;
70052;SDS011;57398;52.032;4.376;2023-11-19T02:51:46;1.00;;;0.40;;
70052;SDS011;57398;52.032;4.376;2023-11-19T02:54:34;1.00;;;0.40;;
70052;SDS011;57398;52.032;4.376;2023-11-19T02:57:23;1.00;;;0.40;;
70052;SDS011;57398;52.032;4.376;2023-11-19T03:00:12;0.95;;;0.35;;
70052;SDS011;57398;52.032;4.376;2023-11-19T03:03:02;1.10;;;0.50;;
70052;SDS011;57398;52.032;4.376;2023-11-19T03:06:04;1.00;;;0.40;;
70052;SDS011;57398;52.032;4.376;2023-11-19T03:08:54;0.90;;;0.40;;
70052;SDS011;57398;52.032;4.376;2023-11-19T03:11:42;1.00;;;0.40;;
70052;SDS011;57398;52.032;4.376;2023-11-19T03:14:30;1.02;;;0.50;;
70052;SDS011;57398;52.032;4.376;2023-11-19T03:17:20;0.88;;;0.30;;
70052;SDS011;57398;52.032;4.376;2023-11-19T03:20:12;1.00;;;0.40;;
70052;SDS011;57398;52.032;4.376;2023-11-19T03:23:01;0.90;;;0.35;;
70052;SDS011;57398;52.032;4.376;2023-11-19T03:25:50;1.00;;;0.40;;
70052;SDS011;57398;52.032;4.376;2023-11-19T03:28:38;1.00;;;0.40;;
70052;SDS011;57398;52.032;4.376;2023-11-19T03:31:26;0.90;;;0.32;;
70052;SDS011;57398;52.032;4.376;2023-11-19T03:34:14;0.83;;;0.30;;
70052;SDS011;57398;52.032;4.376;2023-11-19T03:37:03;0.85;;;0.30;;
70052;SDS011;57398;52.032;4.376;2023-11-19T03:39:51;0.90;;;0.30;;
70052;SDS011;57398;52.032;4.376;2023-11-19T03:42:41;1.00;;;0.40;;
70052;SDS011;57398;52.032;4.376;2023-11-19T03:45:30;1.10;;;0.50;;
70052;SDS011;57398;52.032;4.376;2023-11-19T03:48:18;1.03;;;0.50;;
70052;SDS011;57398;52.032;4.376;2023-11-19T03:51:06;0.93;;;0.38;;
70052;SDS011;57398;52.032;4.376;2023-11-19T03:53:56;0.90;;;0.40;;
70052;SDS011;57398;52.032;4.376;2023-11-19T03:56:44;1.00;;;0.40;;
70052;SDS011;57398;52.032;4.376;2023-11-19T03:59:32;0.98;;;0.38;;
70052;SDS011;57398;52.032;4.376;2023-11-19T04:02:20;1.00;;;0.40;;
70052;SDS011;57398;52.032;4.376;2023-11-19T04:05:08;1.00;;;0.40;;
70052;SDS011;57398;52.032;4.376;2023-11-19T04:07:57;0.85;;;0.30;;
70052;SDS011;57398;52.032;4.376;2023-11-19T04:10:46;0.90;;;0.30;;
70052;SDS011;57398;52.032;4.376;2023-11-19T04:13:34;0.90;;;0.30;;
70052;SDS011;57398;52.032;4.376;2023-11-19T04:16:25;0.90;;;0.37;;
70052;SDS011;57398;52.032;4.376;2023-11-19T04:19:14;0.98;;;0.40;;
70052;SDS011;57398;52.032;4.376;2023-11-19T04:22:02;0.90;;;0.30;;
70052;SDS011;57398;52.032;4.376;2023-11-19T04:24:51;1.00;;;0.47;;
70052;SDS011;57398;52.032;4.376;2023-11-19T04:27:40;1.10;;;0.50;;
70052;SDS011;57398;52.032;4.376;2023-11-19T04:30:28;1.10;;;0.50;;
70052;SDS011;57398;52.032;4.376;2023-11-19T04:33:18;1.00;;;0.40;;
70052;SDS011;57398;52.032;4.376;2023-11-19T04:36:06;1.10;;;0.50;;
70052;SDS011;57398;52.032;4.376;2023-11-19T04:38:55;1.00;;;0.40;;
70052;SDS011;57398;52.032;4.376;2023-11-19T04:41:46;1.00;;;0.40;;
70052;SDS011;57398;52.032;4.376;2023-11-19T04:44:36;1.00;;;0.43;;
70052;SDS011;57398;52.032;4.376;2023-11-19T04:47:24;1.05;;;0.45;;
70052;SDS011;57398;52.032;4.376;2023-11-19T04:50:12;1.00;;;0.40;;
70052;SDS011;57398;52.032;4.376;2023-11-19T04:53:01;1.00;;;0.40;;
70052;SDS011;57398;52.032;4.376;2023-11-19T04:55:50;1.00;;;0.40;;
70052;SDS011;57398;52.032;4.376;2023-11-19T04:58:38;1.00;;;0.50;;
70052;SDS011;57398;52.032;4.376;2023-11-19T05:01:27;0.90;;;0.38;;
70052;SDS011;57398;52.032;4.376;2023-11-19T05:04:15;1.00;;;0.40;;
70052;SDS011;57398;52.032;4.376;2023-11-19T05:07:05;1.00;;;0.50;;
70052;SDS011;57398;52.032;4.376;2023-11-19T05:09:54;1.10;;;0.50;;
70052;SDS011;57398;52.032;4.376;2023-11-19T05:12:42;1.10;;;0.50;;
70052;SDS011;57398;52.032;4.376;2023-11-19T05:15:30;1.10;;;0.50;;
70052;SDS011;57398;52.032;4.376;2023-11-19T05:18:20;1.10;;;0.50;;
70052;SDS011;57398;52.032;4.376;2023-11-19T05:21:08;1.00;;;0.40;;
70052;SDS011;57398;52.032;4.376;2023-11-19T05:23:56;0.90;;;0.30;;
70052;SDS011;57398;52.032;4.376;2023-11-19T05:26:44;1.00;;;0.40;;
70052;SDS011;57398;52.032;4.376;2023-11-19T05:29:33;1.00;;;0.40;;
70052;SDS011;57398;52.032;4.376;2023-11-19T05:32:21;0.95;;;0.40;;
70052;SDS011;57398;52.032;4.376;2023-11-19T05:35:11;0.90;;;0.30;;
70052;SDS011;57398;52.032;4.376;2023-11-19T05:37:59;0.98;;;0.40;;
70052;SDS011;57398;52.032;4.376;2023-11-19T05:40:49;0.90;;;0.30;;
70052;SDS011;57398;52.032;4.376;2023-11-19T05:43:37;0.90;;;0.30;;
70052;SDS011;57398;52.032;4.376;2023-11-19T05:46:27;0.90;;;0.30;;
70052;SDS011;57398;52.032;4.376;2023-11-19T05:49:15;0.85;;;0.30;;
70052;SDS011;57398;52.032;4.376;2023-11-19T05:52:04;1.00;;;0.40;;
70052;SDS011;57398;52.032;4.376;2023-11-19T05:54:54;1.10;;;0.50;;
70052;SDS011;57398;52.032;4.376;2023-11-19T05:57:42;1.00;;;0.45;;
70052;SDS011;57398;52.032;4.376;2023-11-19T06:00:33;1.10;;;0.50;;
70052;SDS011;57398;52.032;4.376;2023-11-19T06:03:22;1.00;;;0.40;;
70052;SDS011;57398;52.032;4.376;2023-11-19T06:06:10;1.10;;;0.50;;
70052;SDS011;57398;52.032;4.376;2023-11-19T06:09:00;1.07;;;0.50;;
70052;SDS011;57398;52.032;4.376;2023-11-19T06:11:54;1.00;;;0.47;;
70052;SDS011;57398;52.032;4.376;2023-11-19T06:14:43;1.20;;;0.60;;
70052;SDS011;57398;52.032;4.376;2023-11-19T06:17:31;1.10;;;0.50;;
70052;SDS011;57398;52.032;4.376;2023-11-19T06:20:20;1.10;;;0.50;;
70052;SDS011;57398;52.032;4.376;2023-11-19T06:23:08;1.00;;;0.40;;
70052;SDS011;57398;52.032;4.376;2023-11-19T06:25:57;1.00;;;0.50;;
70052;SDS011;57398;52.032;4.376;2023-11-19T06:28:45;1.00;;;0.40;;
70052;SDS011;57398;52.032;4.376;2023-11-19T06:31:33;1.00;;;0.40;;
70052;SDS011;57398;52.032;4.376;2023-11-19T06:34:21;1.00;;;0.40;;
70052;SDS011;57398;52.032;4.376;2023-11-19T06:37:09;1.10;;;0.50;;
70052;SDS011;57398;52.032;4.376;2023-11-19T06:39:58;1.10;;;0.50;;
70052;SDS011;57398;52.032;4.376;2023-11-19T06:42:47;1.10;;;0.50;;
70052;SDS011;57398;52.032;4.376;2023-11-19T06:45:35;1.10;;;0.50;;
70052;SDS011;57398;52.032;4.376;2023-11-19T06:48:24;1.00;;;0.40;;
70052;SDS011;57398;52.032;4.376;2023-11-19T06:51:12;1.03;;;0.43;;
70052;SDS011;57398;52.032;4.376;2023-11-19T06:54:00;1.02;;;0.40;;
70052;SDS011;57398;52.032;4.376;2023-11-19T06:56:48;1.00;;;0.40;;
70052;SDS011;57398;52.032;4.376;2023-11-19T06:59:38;1.00;;;0.40;;
70052;SDS011;57398;52.032;4.376;2023-11-19T07:02:26;1.00;;;0.40;;
70052;SDS011;57398;52.032;4.376;2023-11-19T07:05:14;1.00;;;0.40;;
70052;SDS011;57398;52.032;4.376;2023-11-19T07:08:02;1.00;;;0.40;;
70052;SDS011;57398;52.032;4.376;2023-11-19T07:10:51;1.08;;;0.47;;
70052;SDS011;57398;52.032;4.376;2023-11-19T07:13:39;1.00;;;0.40;;
70052;SDS011;57398;52.032;4.376;2023-11-19T07:16:29;1.00;;;0.40;;
70052;SDS011;57398;52.032;4.376;2023-11-19T07:19:17;1.00;;;0.40;;
70052;SDS011;57398;52.032;4.376;2023-11-19T07:22:05;0.90;;;0.30;;
70052;SDS011;57398;52.032;4.376;2023-11-19T07:24:53;1.00;;;0.50;;
70052;SDS011;57398;52.032;4.376;2023-11-19T07:27:41;1.10;;;0.43;;
70052;SDS011;57398;52.032;4.376;2023-11-19T07:30:30;1.00;;;0.40;;
70052;SDS011;57398;52.032;4.376;2023-11-19T07:33:19;1.10;;;0.50;;
70052;SDS011;57398;52.032;4.376;2023-11-19T07:36:07;1.10;;;0.50;;
70052;SDS011;57398;52.032;4.376;2023-11-19T07:38:56;1.08;;;0.50;;
70052;SDS011;57398;52.032;4.376;2023-11-19T07:41:44;1.02;;;0.50;;
70052;SDS011;57398;52.032;4.376;2023-11-19T07:44:32;1.30;;;0.80;;
70052;SDS011;57398;52.032;4.376;2023-11-19T07:47:20;1.30;;;0.70;;
70052;SDS011;57398;52.032;4.376;2023-11-19T07:50:11;1.40;;;0.80;;
70052;SDS011;57398;52.032;4.376;2023-11-19T07:53:00;1.27;;;0.70;;
70052;SDS011;57398;52.032;4.376;2023-11-19T07:55:50;1.30;;;0.80;;
70052;SDS011;57398;52.032;4.376;2023-11-19T07:58:39;1.30;;;0.70;;
70052;SDS011;57398;52.032;4.376;2023-11-19T08:01:27;1.30;;;0.70;;
70052;SDS011;57398;52.032;4.376;2023-11-19T08:04:15;1.30;;;0.70;;
70052;SDS011;57398;52.032;4.376;2023-11-19T08:07:04;1.20;;;0.63;;
70052;SDS011;57398;52.032;4.376;2023-11-19T08:09:53;1.40;;;0.80;;
70052;SDS011;57398;52.032;4.376;2023-11-19T08:12:41;1.20;;;0.65;;
70052;SDS011;57398;52.032;4.376;2023-11-19T08:15:29;1.30;;;0.70;;
70052;SDS011;57398;52.032;4.376;2023-11-19T08:18:18;1.35;;;0.80;;
70052;SDS011;57398;52.032;4.376;2023-11-19T08:21:06;1.20;;;0.60;;
70052;SDS011;57398;52.032;4.376;2023-11-19T08:23:56;1.30;;;0.80;;
70052;SDS011;57398;52.032;4.376;2023-11-19T08:26:44;1.23;;;0.70;;
70052;SDS011;57398;52.032;4.376;2023-11-19T08:29:47;1.30;;;0.70;;
70052;SDS011;57398;52.032;4.376;2023-11-19T08:32:35;1.30;;;0.70;;
70052;SDS011;57398;52.032;4.376;2023-11-19T08:35:24;1.30;;;0.70;;
70052;SDS011;57398;52.032;4.376;2023-11-19T08:38:12;1.30;;;0.77;;
70052;SDS011;57398;52.032;4.376;2023-11-19T08:41:01;1.30;;;0.80;;
70052;SDS011;57398;52.032;4.376;2023-11-19T08:43:49;1.20;;;0.70;;
70052;SDS011;57398;52.032;4.376;2023-11-19T08:46:38;1.40;;;0.80;;
70052;SDS011;57398;52.032;4.376;2023-11-19T08:49:26;1.10;;;0.60;;
70052;SDS011;57398;52.032;4.376;2023-11-19T08:52:14;1.13;;;0.60;;
70052;SDS011;57398;52.032;4.376;2023-11-19T08:55:04;1.20;;;0.70;;
70052;SDS011;57398;52.032;4.376;2023-11-19T08:57:54;1.10;;;0.50;;
70052;SDS011;57398;52.032;4.376;2023-11-19T09:00:42;1.20;;;0.60;;
70052;SDS011;57398;52.032;4.376;2023-11-19T09:03:30;1.40;;;0.80;;
70052;SDS011;57398;52.032;4.376;2023-11-19T09:06:19;1.30;;;0.70;;
70052;SDS011;57398;52.032;4.376;2023-11-19T09:09:07;1.30;;;0.70;;
70052;SDS011;57398;52.032;4.376;2023-11-19T09:11:56;1.27;;;0.70;;
70052;SDS011;57398;52.032;4.376;2023-11-19T09:14:45;1.20;;;0.70;;
70052;SDS011;57398;52.032;4.376;2023-11-19T09:17:33;1.27;;;0.70;;
70052;SDS011;57398;52.032;4.376;2023-11-19T09:20:22;1.20;;;0.70;;
70052;SDS011;57398;52.032;4.376;2023-11-19T09:23:10;1.27;;;0.70;;
70052;SDS011;57398;52.032;4.376;2023-11-19T09:25:58;1.20;;;0.70;;
70052;SDS011;57398;52.032;4.376;2023-11-19T09:28:46;1.10;;;0.60;;
70052;SDS011;57398;52.032;4.376;2023-11-19T09:31:37;1.20;;;0.60;;
70052;SDS011;57398;52.032;4.376;2023-11-19T09:34:25;1.27;;;0.70;;
70052;SDS011;57398;52.032;4.376;2023-11-19T09:37:14;1.10;;;0.50;;
70052;SDS011;57398;52.032;4.376;2023-11-19T09:40:05;1.20;;;0.70;;
70052;SDS011;57398;52.032;4.376;2023-11-19T09:42:56;1.30;;;0.70;;
70052;SDS011;57398;52.032;4.376;2023-11-19T09:45:47;1.10;;;0.60;;
70052;SDS011;57398;52.032;4.376;2023-11-19T09:48:38;1.20;;;0.60;;
70052;SDS011;57398;52.032;4.376;2023-11-19T09:51:27;1.10;;;0.50;;
70052;SDS011;57398;52.032;4.376;2023-11-19T09:54:15;1.20;;;0.60;;
70052;SDS011;57398;52.032;4.376;2023-11-19T09:57:03;1.20;;;0.60;;
70052;SDS011;57398;52.032;4.376;2023-11-19T09:59:54;1.20;;;0.60;;
70052;SDS011;57398;52.032;4.376;2023-11-19T10:02:42;1.20;;;0.60;;
70052;SDS011;57398;52.032;4.376;2023-11-19T10:05:35;1.30;;;0.70;;
70052;SDS011;57398;52.032;4.376;2023-11-19T10:08:24;1.20;;;0.67;;
70052;SDS011;57398;52.032;4.376;2023-11-19T10:11:13;1.20;;;0.60;;
70052;SDS011;57398;52.032;4.376;2023-11-19T10:14:02;1.20;;;0.60;;
70052;SDS011;57398;52.032;4.376;2023-11-19T10:16:50;1.10;;;0.60;;
70052;SDS011;57398;52.032;4.376;2023-11-19T10:19:39;1.10;;;0.57;;
70052;SDS011;57398;52.032;4.376;2023-11-19T10:22:30;1.20;;;0.60;;
70052;SDS011;57398;52.032;4.376;2023-11-19T10:25:21;1.10;;;0.60;;
70052;SDS011;57398;52.032;4.376;2023-11-19T10:28:11;1.20;;;0.60;;
70052;SDS011;57398;52.032;4.376;2023-11-19T10:30:58;1.30;;;0.70;;
70052;SDS011;57398;52.032;4.376;2023-11-19T10:33:46;1.20;;;0.60;;
70052;SDS011;57398;52.032;4.376;2023-11-19T10:36:38;1.20;;;0.70;;
70052;SDS011;57398;52.032;4.376;2023-11-19T10:39:34;1.30;;;0.70;;
70052;SDS011;57398;52.032;4.376;2023-11-19T10:42:41;1.20;;;0.68;;
70052;SDS011;57398;52.032;4.376;2023-11-19T10:45:31;1.20;;;0.60;;
70052;SDS011;57398;52.032;4.376;2023-11-19T10:48:20;1.20;;;0.60;;
70052;SDS011;57398;52.032;4.376;2023-11-19T10:51:11;1.23;;;0.70;;
70052;SDS011;57398;52.032;4.376;2023-11-19T10:54:03;1.30;;;0.80;;
70052;SDS011;57398;52.032;4.376;2023-11-19T10:56:58;1.20;;;0.60;;
70052;SDS011;57398;52.032;4.376;2023-11-19T10:59:47;1.17;;;0.60;;
70052;SDS011;57398;52.032;4.376;2023-11-19T11:02:41;1.20;;;0.70;;
70052;SDS011;57398;52.032;4.376;2023-11-19T11:05:32;1.20;;;0.60;;
70052;SDS011;57398;52.032;4.376;2023-11-19T11:08:21;1.20;;;0.70;;
70052;SDS011;57398;52.032;4.376;2023-11-19T11:11:09;1.30;;;0.70;;
70052;SDS011;57398;52.032;4.376;2023-11-19T11:14:02;1.20;;;0.70;;
70052;SDS011;57398;52.032;4.376;2023-11-19T11:16:52;1.17;;;0.60;;
70052;SDS011;57398;52.032;4.376;2023-11-19T11:19:41;1.17;;;0.60;;
70052;SDS011;57398;52.032;4.376;2023-11-19T11:22:30;1.30;;;0.70;;
70052;SDS011;57398;52.032;4.376;2023-11-19T11:25:33;1.30;;;0.70;;
70052;SDS011;57398;52.032;4.376;2023-11-19T11:28:34;1.20;;;0.60;;
70052;SDS011;57398;52.032;4.376;2023-11-19T11:31:34;1.20;;;0.60;;
70052;SDS011;57398;52.032;4.376;2023-11-19T11:34:41;1.20;;;0.70;;
70052;SDS011;57398;52.032;4.376;2023-11-19T11:37:44;1.20;;;0.70;;
70052;SDS011;57398;52.032;4.376;2023-11-19T11:40:34;1.20;;;0.60;;
70052;SDS011;57398;52.032;4.376;2023-11-19T11:43:43;1.08;;;0.50;;
70052;SDS011;57398;52.032;4.376;2023-11-19T11:49:43;1.20;;;0.63;;
70052;SDS011;57398;52.032;4.376;2023-11-19T11:52:31;1.10;;;0.50;;
70052;SDS011;57398;52.032;4.376;2023-11-19T11:55:23;1.10;;;0.50;;
70052;SDS011;57398;52.032;4.376;2023-11-19T11:58:11;1.20;;;0.60;;
70052;SDS011;57398;52.032;4.376;2023-11-19T12:01:00;1.20;;;0.60;;
70052;SDS011;57398;52.032;4.376;2023-11-19T12:03:55;1.20;;;0.60;;
70052;SDS011;57398;52.032;4.376;2023-11-19T12:06:46;1.20;;;0.60;;
70052;SDS011;57398;52.032;4.376;2023-11-19T12:09:52;1.20;;;0.70;;
70052;SDS011;57398;52.032;4.376;2023-11-19T12:12:42;1.20;;;0.60;;
70052;SDS011;57398;52.032;4.376;2023-11-19T12:15:30;1.10;;;0.60;;
70052;SDS011;57398;52.032;4.376;2023-11-19T12:18:18;1.20;;;0.60;;
70052;SDS011;57398;52.032;4.376;2023-11-19T12:21:08;1.20;;;0.60;;
70052;SDS011;57398;52.032;4.376;2023-11-19T12:23:59;1.27;;;0.70;;
70052;SDS011;57398;52.032;4.376;2023-11-19T12:26:54;1.20;;;0.63;;
70052;SDS011;57398;52.032;4.376;2023-11-19T12:29:43;1.10;;;0.50;;
70052;SDS011;57398;52.032;4.376;2023-11-19T12:32:38;1.10;;;0.50;;
70052;SDS011;57398;52.032;4.376;2023-11-19T12:35:27;1.10;;;0.50;;
70052;SDS011;57398;52.032;4.376;2023-11-19T12:38:19;1.20;;;0.60;;
70052;SDS011;57398;52.032;4.376;2023-11-19T12:41:08;1.10;;;0.50;;
70052;SDS011;57398;52.032;4.376;2023-11-19T12:44:08;1.27;;;0.70;;
70052;SDS011;57398;52.032;4.376;2023-11-19T12:47:01;1.20;;;0.60;;
70052;SDS011;57398;52.032;4.376;2023-11-19T12:49:57;1.15;;;0.57;;
70052;SDS011;57398;52.032;4.376;2023-11-19T12:52:55;1.10;;;0.60;;
70052;SDS011;57398;52.032;4.376;2023-11-19T12:55:45;1.10;;;0.50;;
70052;SDS011;57398;52.032;4.376;2023-11-19T12:58:34;1.10;;;0.52;;
70052;SDS011;57398;52.032;4.376;2023-11-19T13:01:23;1.00;;;0.50;;
70052;SDS011;57398;52.032;4.376;2023-11-19T13:04:18;1.10;;;0.50;;
70052;SDS011;57398;52.032;4.376;2023-11-19T13:07:06;1.10;;;0.52;;
70052;SDS011;57398;52.032;4.376;2023-11-19T13:10:00;1.10;;;0.60;;
70052;SDS011;57398;52.032;4.376;2023-11-19T13:13:00;1.30;;;0.70;;
70052;SDS011;57398;52.032;4.376;2023-11-19T13:15:50;1.30;;;0.80;;
70052;SDS011;57398;52.032;4.376;2023-11-19T13:18:38;1.10;;;0.50;;
70052;SDS011;57398;52.032;4.376;2023-11-19T13:21:29;1.10;;;0.57;;
70052;SDS011;57398;52.032;4.376;2023-11-19T13:24:17;1.10;;;0.57;;
70052;SDS011;57398;52.032;4.376;2023-11-19T13:27:05;1.10;;;0.50;;
70052;SDS011;57398;52.032;4.376;2023-11-19T13:29:55;1.10;;;0.50;;
70052;SDS011;57398;52.032;4.376;2023-11-19T13:32:43;1.10;;;0.50;;
70052;SDS011;57398;52.032;4.376;2023-11-19T13:35:31;1.10;;;0.57;;
70052;SDS011;57398;52.032;4.376;2023-11-19T13:38:19;1.10;;;0.50;;
70052;SDS011;57398;52.032;4.376;2023-11-19T13:41:07;1.10;;;0.50;;
70052;SDS011;57398;52.032;4.376;2023-11-19T13:43:56;1.00;;;0.50;;
70052;SDS011;57398;52.032;4.376;2023-11-19T13:46:46;1.17;;;0.60;;
70052;SDS011;57398;52.032;4.376;2023-11-19T13:49:37;1.20;;;0.60;;
70052;SDS011;57398;52.032;4.376;2023-11-19T13:52:25;1.25;;;0.65;;
70052;SDS011;57398;52.032;4.376;2023-11-19T13:55:13;1.13;;;0.60;;
70052;SDS011;57398;52.032;4.376;2023-11-19T13:58:01;1.30;;;0.70;;
70052;SDS011;57398;52.032;4.376;2023-11-19T14:00:50;1.30;;;0.70;;
70052;SDS011;57398;52.032;4.376;2023-11-19T14:03:39;1.27;;;0.70;;
70052;SDS011;57398;52.032;4.376;2023-11-19T14:06:28;1.30;;;0.80;;
70052;SDS011;57398;52.032;4.376;2023-11-19T14:09:16;1.30;;;0.70;;
70052;SDS011;57398;52.032;4.376;2023-11-19T14:12:05;1.20;;;0.70;;
70052;SDS011;57398;52.032;4.376;2023-11-19T14:14:53;1.20;;;0.60;;
70052;SDS011;57398;52.032;4.376;2023-11-19T14:17:41;1.00;;;0.50;;
70052;SDS011;57398;52.032;4.376;2023-11-19T14:20:30;1.20;;;0.60;;
70052;SDS011;57398;52.032;4.376;2023-11-19T14:23:19;1.00;;;0.50;;
70052;SDS011;57398;52.032;4.376;2023-11-19T14:26:07;1.20;;;0.60;;
70052;SDS011;57398;52.032;4.376;2023-11-19T14:28:55;1.20;;;0.60;;
70052;SDS011;57398;52.032;4.376;2023-11-19T14:31:43;1.20;;;0.60;;
70052;SDS011;57398;52.032;4.376;2023-11-19T14:34:31;1.10;;;0.60;;
70052;SDS011;57398;52.032;4.376;2023-11-19T14:37:21;1.20;;;0.60;;
70052;SDS011;57398;52.032;4.376;2023-11-19T14:40:09;1.20;;;0.60;;
70052;SDS011;57398;52.032;4.376;2023-11-19T14:42:58;1.10;;;0.60;;
70052;SDS011;57398;52.032;4.376;2023-11-19T14:45:46;1.20;;;0.70;;
70052;SDS011;57398;52.032;4.376;2023-11-19T14:48:36;1.13;;;0.60;;
70052;SDS011;57398;52.032;4.376;2023-11-19T14:51:24;1.20;;;0.60;;
70052;SDS011;57398;52.032;4.376;2023-11-19T14:54:13;1.10;;;0.50;;
70052;SDS011;57398;52.032;4.376;2023-11-19T14:57:02;1.05;;;0.50;;
70052;SDS011;57398;52.032;4.376;2023-11-19T14:59:50;1.20;;;0.70;;
70052;SDS011;57398;52.032;4.376;2023-11-19T15:02:39;1.20;;;0.60;;
70052;SDS011;57398;52.032;4.376;2023-11-19T15:05:28;1.10;;;0.50;;
70052;SDS011;57398;52.032;4.376;2023-11-19T15:08:16;1.20;;;0.60;;
70052;SDS011;57398;52.032;4.376;2023-11-19T15:11:06;1.00;;;0.50;;
70052;SDS011;57398;52.032;4.376;2023-11-19T15:13:55;1.00;;;0.50;;
70052;SDS011;57398;52.032;4.376;2023-11-19T15:16:44;1.10;;;0.60;;
70052;SDS011;57398;52.032;4.376;2023-11-19T15:19:33;1.00;;;0.40;;
70052;SDS011;57398;52.032;4.376;2023-11-19T15:22:21;1.10;;;0.60;;
70052;SDS011;57398;52.032;4.376;2023-11-19T15:25:09;1.10;;;0.60;;
70052;SDS011;57398;52.032;4.376;2023-11-19T15:27:58;1.10;;;0.50;;
70052;SDS011;57398;52.032;4.376;2023-11-19T15:30:46;1.00;;;0.50;;
70052;SDS011;57398;52.032;4.376;2023-11-19T15:33:34;1.10;;;0.50;;
70052;SDS011;57398;52.032;4.376;2023-11-19T15:36:22;1.00;;;0.40;;
70052;SDS011;57398;52.032;4.376;2023-11-19T15:39:10;1.10;;;0.50;;
70052;SDS011;57398;52.032;4.376;2023-11-19T15:42:00;1.15;;;0.60;;
70052;SDS011;57398;52.032;4.376;2023-11-19T15:44:49;1.15;;;0.60;;
70052;SDS011;57398;52.032;4.376;2023-11-19T15:47:37;1.20;;;0.60;;
70052;SDS011;57398;52.032;4.376;2023-11-19T15:50:26;1.20;;;0.70;;
70052;SDS011;57398;52.032;4.376;2023-11-19T15:53:16;1.30;;;0.70;;
70052;SDS011;57398;52.032;4.376;2023-11-19T15:56:05;1.20;;;0.60;;
70052;SDS011;57398;52.032;4.376;2023-11-19T15:58:53;1.20;;;0.60;;
70052;SDS011;57398;52.032;4.376;2023-11-19T16:01:42;1.30;;;0.70;;
70052;SDS011;57398;52.032;4.376;2023-11-19T16:04:30;1.30;;;0.80;;
70052;SDS011;57398;52.032;4.376;2023-11-19T16:07:18;1.20;;;0.60;;
70052;SDS011;57398;52.032;4.376;2023-11-19T16:10:07;1.20;;;0.68;;
70052;SDS011;57398;52.032;4.376;2023-11-19T16:12:59;1.17;;;0.60;;
70052;SDS011;57398;52.032;4.376;2023-11-19T16:15:47;1.20;;;0.70;;
70052;SDS011;57398;52.032;4.376;2023-11-19T16:18:36;1.40;;;0.80;;
70052;SDS011;57398;52.032;4.376;2023-11-19T16:21:24;1.33;;;0.80;;
70052;SDS011;57398;52.032;4.376;2023-11-19T16:24:12;1.30;;;0.75;;
70052;SDS011;57398;52.032;4.376;2023-11-19T16:27:00;1.33;;;0.77;;
70052;SDS011;57398;52.032;4.376;2023-11-19T16:29:48;1.20;;;0.65;;
70052;SDS011;57398;52.032;4.376;2023-11-19T16:32:47;1.30;;;0.80;;
70052;SDS011;57398;52.032;4.376;2023-11-19T16:35:39;1.30;;;0.70;;
70052;SDS011;57398;52.032;4.376;2023-11-19T16:38:28;1.30;;;0.75;;
70052;SDS011;57398;52.032;4.376;2023-11-19T16:41:18;1.30;;;0.70;;
70052;SDS011;57398;52.032;4.376;2023-11-19T16:44:18;1.20;;;0.60;;
70052;SDS011;57398;52.032;4.376;2023-11-19T16:47:06;1.33;;;0.80;;
70052;SDS011;57398;52.032;4.376;2023-11-19T16:49:54;1.30;;;0.77;;
70052;SDS011;57398;52.032;4.376;2023-11-19T16:52:44;1.30;;;0.70;;
70052;SDS011;57398;52.032;4.376;2023-11-19T16:55:32;1.30;;;0.73;;
70052;SDS011;57398;52.032;4.376;2023-11-19T16:58:21;1.23;;;0.70;;
70052;SDS011;57398;52.032;4.376;2023-11-19T17:01:10;1.30;;;0.80;;
70052;SDS011;57398;52.032;4.376;2023-11-19T17:04:00;1.30;;;0.80;;
70052;SDS011;57398;52.032;4.376;2023-11-19T17:06:48;1.20;;;0.70;;